sensor_id;sensor_type;location;lat;lon;timestamp;P1;durP1;ratioP1;P2;durP2;ratioP2
35223;SDS011;21367;51.930;8.112;2023-05-10T00:04:59;14.93;;;11.23;;
35223;SDS011;21367;51.930;8.112;2023-05-10T00:10:05;15.15;;;11.27;;
35223;SDS011;21367;51.930;8.112;2023-05-10T00:15:10;18.50;;;12.45;;
35223;SDS011;21367;51.930;8.112;2023-05-10T00:20:14;18.65;;;12.63;;
35223;SDS011;21367;51.930;8.112;2023-05-10T00:25:20;19.90;;;12.35;;
35223;SDS011;21367;51.930;8.112;2023-05-10T00:30:24;17.92;;;13.13;;
35223;SDS011;21367;51.930;8.112;2023-05-10T00:35:29;23.55;;;13.70;;
35223;SDS011;21367;51.930;8.112;2023-05-10T00:40:35;21.65;;;14.50;;
35223;SDS011;21367;51.930;8.112;2023-05-10T00:45:45;20.85;;;12.65;;
35223;SDS011;21367;51.930;8.112;2023-05-10T00:50:49;17.55;;;12.02;;
35223;SDS011;21367;51.930;8.112;2023-05-10T00:55:55;15.50;;;10.57;;
35223;SDS011;21367;51.930;8.112;2023-05-10T01:00:59;13.27;;;9.95;;
35223;SDS011;21367;51.930;8.112;2023-05-10T01:06:04;12.48;;;9.85;;
35223;SDS011;21367;51.930;8.112;2023-05-10T01:11:12;10.82;;;7.95;;
35223;SDS011;21367;51.930;8.112;2023-05-10T01:16:16;9.82;;;6.97;;
35223;SDS011;21367;51.930;8.112;2023-05-10T01:21:23;11.77;;;7.80;;
35223;SDS011;21367;51.930;8.112;2023-05-10T01:26:46;9.88;;;7.22;;
35223;SDS011;21367;51.930;8.112;2023-05-10T01:32:22;10.70;;;7.07;;
35223;SDS011;21367;51.930;8.112;2023-05-10T01:37:37;10.48;;;6.95;;
35223;SDS011;21367;51.930;8.112;2023-05-10T01:42:46;10.18;;;7.30;;
35223;SDS011;21367;51.930;8.112;2023-05-10T01:47:58;13.52;;;7.70;;
35223;SDS011;21367;51.930;8.112;2023-05-10T01:53:07;12.88;;;8.40;;
35223;SDS011;21367;51.930;8.112;2023-05-10T01:58:13;15.80;;;9.67;;
35223;SDS011;21367;51.930;8.112;2023-05-10T02:03:23;18.17;;;10.45;;
35223;SDS011;21367;51.930;8.112;2023-05-10T02:08:29;21.67;;;13.02;;
35223;SDS011;21367;51.930;8.112;2023-05-10T02:13:34;21.45;;;13.70;;
35223;SDS011;21367;51.930;8.112;2023-05-10T02:18:43;22.85;;;13.73;;
35223;SDS011;21367;51.930;8.112;2023-05-10T02:23:49;19.85;;;11.05;;
35223;SDS011;21367;51.930;8.112;2023-05-10T02:28:55;16.98;;;10.52;;
35223;SDS011;21367;51.930;8.112;2023-05-10T02:34:04;18.05;;;11.10;;
35223;SDS011;21367;51.930;8.112;2023-05-10T02:39:09;15.30;;;9.43;;
35223;SDS011;21367;51.930;8.112;2023-05-10T02:44:16;16.67;;;9.53;;
35223;SDS011;21367;51.930;8.112;2023-05-10T02:49:24;8.38;;;6.18;;
35223;SDS011;21367;51.930;8.112;2023-05-10T02:59:33;7.60;;;5.47;;
35223;SDS011;21367;51.930;8.112;2023-05-10T03:04:40;7.70;;;3.65;;
35223;SDS011;21367;51.930;8.112;2023-05-10T03:09:43;4.35;;;2.30;;
35223;SDS011;21367;51.930;8.112;2023-05-10T03:14:49;4.57;;;1.40;;
35223;SDS011;21367;51.930;8.112;2023-05-10T03:20:06;2.53;;;1.08;;
35223;SDS011;21367;51.930;8.112;2023-05-10T03:25:15;4.47;;;1.40;;
35223;SDS011;21367;51.930;8.112;2023-05-10T03:30:20;1.70;;;1.13;;
35223;SDS011;21367;51.930;8.112;2023-05-10T03:35:28;2.95;;;1.50;;
35223;SDS011;21367;51.930;8.112;2023-05-10T03:40:32;2.65;;;1.65;;
35223;SDS011;21367;51.930;8.112;2023-05-10T03:45:36;5.15;;;1.95;;
35223;SDS011;21367;51.930;8.112;2023-05-10T03:50:43;17.73;;;2.85;;
35223;SDS011;21367;51.930;8.112;2023-05-10T03:55:47;3.33;;;2.15;;
35223;SDS011;21367;51.930;8.112;2023-05-10T04:00:51;2.92;;;2.17;;
35223;SDS011;21367;51.930;8.112;2023-05-10T04:06:02;7.93;;;3.10;;
35223;SDS011;21367;51.930;8.112;2023-05-10T04:11:07;3.80;;;3.00;;
35223;SDS011;21367;51.930;8.112;2023-05-10T04:16:11;4.72;;;3.05;;
35223;SDS011;21367;51.930;8.112;2023-05-10T04:21:17;4.90;;;3.22;;
35223;SDS011;21367;51.930;8.112;2023-05-10T04:26:21;5.28;;;3.38;;
35223;SDS011;21367;51.930;8.112;2023-05-10T04:31:25;4.30;;;2.95;;
35223;SDS011;21367;51.930;8.112;2023-05-10T04:36:31;7.13;;;3.45;;
35223;SDS011;21367;51.930;8.112;2023-05-10T04:41:37;4.72;;;3.20;;
35223;SDS011;21367;51.930;8.112;2023-05-10T04:46:41;8.55;;;3.70;;
35223;SDS011;21367;51.930;8.112;2023-05-10T04:51:47;8.85;;;3.40;;
35223;SDS011;21367;51.930;8.112;2023-05-10T05:01:54;7.82;;;3.88;;
35223;SDS011;21367;51.930;8.112;2023-05-10T05:07:01;7.68;;;3.55;;
35223;SDS011;21367;51.930;8.112;2023-05-10T05:12:05;9.65;;;3.25;;
35223;SDS011;21367;51.930;8.112;2023-05-10T05:17:14;4.10;;;3.05;;
35223;SDS011;21367;51.930;8.112;2023-05-10T05:22:20;6.40;;;3.40;;
35223;SDS011;21367;51.930;8.112;2023-05-10T05:27:27;5.95;;;3.30;;
35223;SDS011;21367;51.930;8.112;2023-05-10T05:32:31;5.97;;;3.58;;
35223;SDS011;21367;51.930;8.112;2023-05-10T05:37:37;5.20;;;3.53;;
35223;SDS011;21367;51.930;8.112;2023-05-10T05:47:44;7.88;;;3.70;;
35223;SDS011;21367;51.930;8.112;2023-05-10T05:52:50;5.72;;;3.83;;
35223;SDS011;21367;51.930;8.112;2023-05-10T05:57:54;6.30;;;4.03;;
35223;SDS011;21367;51.930;8.112;2023-05-10T06:02:58;6.57;;;4.55;;
35223;SDS011;21367;51.930;8.112;2023-05-10T06:08:04;11.13;;;5.13;;
35223;SDS011;21367;51.930;8.112;2023-05-10T06:13:08;7.40;;;4.78;;
35223;SDS011;21367;51.930;8.112;2023-05-10T06:18:12;12.02;;;5.13;;
35223;SDS011;21367;51.930;8.112;2023-05-10T06:23:18;11.30;;;5.47;;
35223;SDS011;21367;51.930;8.112;2023-05-10T06:28:22;12.02;;;7.00;;
35223;SDS011;21367;51.930;8.112;2023-05-10T06:33:26;13.68;;;7.32;;
35223;SDS011;21367;51.930;8.112;2023-05-10T06:38:33;20.27;;;8.45;;
35223;SDS011;21367;51.930;8.112;2023-05-10T06:43:37;21.95;;;9.25;;
35223;SDS011;21367;51.930;8.112;2023-05-10T06:48:41;18.52;;;10.32;;
35223;SDS011;21367;51.930;8.112;2023-05-10T06:53:48;26.30;;;11.98;;
35223;SDS011;21367;51.930;8.112;2023-05-10T07:03:55;29.40;;;13.32;;
35223;SDS011;21367;51.930;8.112;2023-05-10T07:09:01;29.85;;;14.38;;
35223;SDS011;21367;51.930;8.112;2023-05-10T07:14:05;35.08;;;15.02;;
35223;SDS011;21367;51.930;8.112;2023-05-10T07:19:09;35.08;;;15.00;;
35223;SDS011;21367;51.930;8.112;2023-05-10T07:24:15;31.73;;;15.55;;
35223;SDS011;21367;51.930;8.112;2023-05-10T07:29:19;35.67;;;16.52;;
35223;SDS011;21367;51.930;8.112;2023-05-10T07:34:22;36.20;;;17.50;;
35223;SDS011;21367;51.930;8.112;2023-05-10T07:39:29;37.15;;;18.08;;
35223;SDS011;21367;51.930;8.112;2023-05-10T07:49:36;43.47;;;19.48;;
35223;SDS011;21367;51.930;8.112;2023-05-10T07:54:42;45.10;;;21.67;;
35223;SDS011;21367;51.930;8.112;2023-05-10T07:59:46;44.63;;;20.85;;
35223;SDS011;21367;51.930;8.112;2023-05-10T08:04:49;53.70;;;24.33;;
35223;SDS011;21367;51.930;8.112;2023-05-10T08:09:56;56.00;;;25.63;;
35223;SDS011;21367;51.930;8.112;2023-05-10T08:15:00;55.40;;;26.13;;
35223;SDS011;21367;51.930;8.112;2023-05-10T08:20:04;57.20;;;26.65;;
35223;SDS011;21367;51.930;8.112;2023-05-10T08:25:11;58.75;;;26.83;;
35223;SDS011;21367;51.930;8.112;2023-05-10T08:30:15;52.53;;;26.15;;
35223;SDS011;21367;51.930;8.112;2023-05-10T08:35:19;57.47;;;26.10;;
35223;SDS011;21367;51.930;8.112;2023-05-10T08:40:25;64.53;;;28.55;;
35223;SDS011;21367;51.930;8.112;2023-05-10T08:45:30;61.08;;;27.90;;
35223;SDS011;21367;51.930;8.112;2023-05-10T08:50:36;52.15;;;27.08;;
35223;SDS011;21367;51.930;8.112;2023-05-10T08:55:44;57.20;;;26.40;;
35223;SDS011;21367;51.930;8.112;2023-05-10T09:00:48;51.25;;;25.08;;
35223;SDS011;21367;51.930;8.112;2023-05-10T09:05:52;51.65;;;25.98;;
35223;SDS011;21367;51.930;8.112;2023-05-10T09:10:59;51.40;;;24.90;;
35223;SDS011;21367;51.930;8.112;2023-05-10T09:16:04;41.63;;;21.45;;
35223;SDS011;21367;51.930;8.112;2023-05-10T09:21:09;38.28;;;20.42;;
35223;SDS011;21367;51.930;8.112;2023-05-10T09:26:15;39.60;;;19.67;;
35223;SDS011;21367;51.930;8.112;2023-05-10T09:31:19;40.03;;;19.52;;
35223;SDS011;21367;51.930;8.112;2023-05-10T09:36:23;39.33;;;21.42;;
35223;SDS011;21367;51.930;8.112;2023-05-10T09:41:30;38.60;;;21.40;;
35223;SDS011;21367;51.930;8.112;2023-05-10T09:46:34;44.58;;;23.17;;
35223;SDS011;21367;51.930;8.112;2023-05-10T09:51:39;36.23;;;19.90;;
35223;SDS011;21367;51.930;8.112;2023-05-10T09:56:45;37.20;;;19.05;;
35223;SDS011;21367;51.930;8.112;2023-05-10T10:01:49;34.53;;;18.40;;
35223;SDS011;21367;51.930;8.112;2023-05-10T10:07:03;36.60;;;17.95;;
35223;SDS011;21367;51.930;8.112;2023-05-10T10:12:10;30.75;;;16.48;;
35223;SDS011;21367;51.930;8.112;2023-05-10T10:17:14;31.30;;;16.17;;
35223;SDS011;21367;51.930;8.112;2023-05-10T10:22:18;27.85;;;16.42;;
35223;SDS011;21367;51.930;8.112;2023-05-10T10:27:26;34.25;;;15.50;;
35223;SDS011;21367;51.930;8.112;2023-05-10T10:32:42;28.38;;;14.73;;
35223;SDS011;21367;51.930;8.112;2023-05-10T10:38:03;24.67;;;13.77;;
35223;SDS011;21367;51.930;8.112;2023-05-10T10:43:25;24.60;;;12.82;;
35223;SDS011;21367;51.930;8.112;2023-05-10T10:48:30;25.98;;;13.45;;
35223;SDS011;21367;51.930;8.112;2023-05-10T10:53:34;25.95;;;13.68;;
35223;SDS011;21367;51.930;8.112;2023-05-10T10:58:48;20.05;;;10.77;;
35223;SDS011;21367;51.930;8.112;2023-05-10T11:09:22;30.95;;;13.80;;
35223;SDS011;21367;51.930;8.112;2023-05-10T11:14:30;27.77;;;13.03;;
35223;SDS011;21367;51.930;8.112;2023-05-10T11:19:35;19.02;;;9.68;;
35223;SDS011;21367;51.930;8.112;2023-05-10T11:24:39;20.70;;;9.23;;
35223;SDS011;21367;51.930;8.112;2023-05-10T11:29:45;21.55;;;12.07;;
35223;SDS011;21367;51.930;8.112;2023-05-10T11:34:49;26.50;;;12.88;;
35223;SDS011;21367;51.930;8.112;2023-05-10T11:39:54;28.85;;;13.00;;
35223;SDS011;21367;51.930;8.112;2023-05-10T11:45:01;31.63;;;14.02;;
35223;SDS011;21367;51.930;8.112;2023-05-10T11:50:05;27.73;;;15.55;;
35223;SDS011;21367;51.930;8.112;2023-05-10T11:55:12;35.55;;;16.60;;
35223;SDS011;21367;51.930;8.112;2023-05-10T12:05:21;34.45;;;15.20;;
35223;SDS011;21367;51.930;8.112;2023-05-10T12:10:26;34.45;;;15.95;;
35223;SDS011;21367;51.930;8.112;2023-05-10T12:15:33;36.33;;;17.15;;
35223;SDS011;21367;51.930;8.112;2023-05-10T12:20:38;32.90;;;17.40;;
35223;SDS011;21367;51.930;8.112;2023-05-10T12:25:42;39.83;;;17.70;;
35223;SDS011;21367;51.930;8.112;2023-05-10T12:30:49;45.65;;;20.20;;
35223;SDS011;21367;51.930;8.112;2023-05-10T12:35:58;31.77;;;16.58;;
35223;SDS011;21367;51.930;8.112;2023-05-10T12:41:03;22.52;;;10.65;;
35223;SDS011;21367;51.930;8.112;2023-05-10T12:46:10;24.65;;;11.60;;
35223;SDS011;21367;51.930;8.112;2023-05-10T12:51:15;25.40;;;13.43;;
35223;SDS011;21367;51.930;8.112;2023-05-10T12:56:22;29.42;;;13.90;;
35223;SDS011;21367;51.930;8.112;2023-05-10T13:01:29;31.40;;;15.43;;
35223;SDS011;21367;51.930;8.112;2023-05-10T13:06:34;31.42;;;16.20;;
35223;SDS011;21367;51.930;8.112;2023-05-10T13:11:38;27.73;;;15.20;;
35223;SDS011;21367;51.930;8.112;2023-05-10T13:16:45;29.85;;;16.42;;
35223;SDS011;21367;51.930;8.112;2023-05-10T13:21:49;38.75;;;18.70;;
35223;SDS011;21367;51.930;8.112;2023-05-10T13:26:53;37.40;;;20.45;;
35223;SDS011;21367;51.930;8.112;2023-05-10T13:31:59;36.33;;;19.50;;
35223;SDS011;21367;51.930;8.112;2023-05-10T13:37:03;30.80;;;17.98;;
35223;SDS011;21367;51.930;8.112;2023-05-10T13:42:07;33.70;;;17.42;;
35223;SDS011;21367;51.930;8.112;2023-05-10T13:47:13;33.13;;;17.80;;
35223;SDS011;21367;51.930;8.112;2023-05-10T13:52:17;40.30;;;20.77;;
35223;SDS011;21367;51.930;8.112;2023-05-10T13:57:21;40.15;;;21.65;;
35223;SDS011;21367;51.930;8.112;2023-05-10T14:02:27;38.67;;;19.27;;
35223;SDS011;21367;51.930;8.112;2023-05-10T14:07:31;36.25;;;18.40;;
35223;SDS011;21367;51.930;8.112;2023-05-10T14:12:36;31.45;;;15.60;;
35223;SDS011;21367;51.930;8.112;2023-05-10T14:17:42;28.90;;;16.38;;
35223;SDS011;21367;51.930;8.112;2023-05-10T14:22:46;32.97;;;16.75;;
35223;SDS011;21367;51.930;8.112;2023-05-10T14:27:50;32.97;;;17.65;;
35223;SDS011;21367;51.930;8.112;2023-05-10T14:32:57;37.13;;;17.42;;
35223;SDS011;21367;51.930;8.112;2023-05-10T14:38:01;40.63;;;19.23;;
35223;SDS011;21367;51.930;8.112;2023-05-10T14:43:05;48.22;;;19.35;;
35223;SDS011;21367;51.930;8.112;2023-05-10T14:48:12;52.05;;;23.13;;
35223;SDS011;21367;51.930;8.112;2023-05-10T14:58:42;57.90;;;21.40;;
35223;SDS011;21367;51.930;8.112;2023-05-10T15:03:48;38.22;;;16.48;;
35223;SDS011;21367;51.930;8.112;2023-05-10T15:08:52;40.38;;;18.65;;
35223;SDS011;21367;51.930;8.112;2023-05-10T15:13:56;38.97;;;16.70;;
35223;SDS011;21367;51.930;8.112;2023-05-10T15:19:02;38.83;;;18.65;;
35223;SDS011;21367;51.930;8.112;2023-05-10T15:24:06;36.70;;;18.48;;
35223;SDS011;21367;51.930;8.112;2023-05-10T15:29:10;36.03;;;17.08;;
35223;SDS011;21367;51.930;8.112;2023-05-10T15:34:22;29.15;;;15.48;;
35223;SDS011;21367;51.930;8.112;2023-05-10T15:39:26;31.67;;;15.60;;
35223;SDS011;21367;51.930;8.112;2023-05-10T15:44:30;29.98;;;15.88;;
35223;SDS011;21367;51.930;8.112;2023-05-10T15:49:38;35.57;;;16.47;;
35223;SDS011;21367;51.930;8.112;2023-05-10T15:54:41;28.27;;;15.63;;
35223;SDS011;21367;51.930;8.112;2023-05-10T15:59:45;30.83;;;16.55;;
35223;SDS011;21367;51.930;8.112;2023-05-10T16:04:52;30.77;;;15.23;;
35223;SDS011;21367;51.930;8.112;2023-05-10T16:09:56;33.63;;;14.98;;
35223;SDS011;21367;51.930;8.112;2023-05-10T16:15:03;30.75;;;13.98;;
35223;SDS011;21367;51.930;8.112;2023-05-10T16:20:10;31.55;;;14.40;;
35223;SDS011;21367;51.930;8.112;2023-05-10T16:25:14;28.35;;;15.55;;
35223;SDS011;21367;51.930;8.112;2023-05-10T16:30:18;30.85;;;15.40;;
35223;SDS011;21367;51.930;8.112;2023-05-10T16:35:26;31.38;;;15.55;;
35223;SDS011;21367;51.930;8.112;2023-05-10T16:40:31;39.50;;;19.70;;
35223;SDS011;21367;51.930;8.112;2023-05-10T16:45:35;40.75;;;19.67;;
35223;SDS011;21367;51.930;8.112;2023-05-10T16:50:44;41.78;;;19.33;;
35223;SDS011;21367;51.930;8.112;2023-05-10T16:55:49;36.20;;;18.95;;
35223;SDS011;21367;51.930;8.112;2023-05-10T17:00:52;41.08;;;19.60;;
35223;SDS011;21367;51.930;8.112;2023-05-10T17:05:59;40.25;;;20.55;;
35223;SDS011;21367;51.930;8.112;2023-05-10T17:11:03;40.20;;;18.67;;
35223;SDS011;21367;51.930;8.112;2023-05-10T17:16:07;49.33;;;23.98;;
35223;SDS011;21367;51.930;8.112;2023-05-10T17:21:14;40.60;;;21.13;;
35223;SDS011;21367;51.930;8.112;2023-05-10T17:26:18;47.10;;;24.52;;
35223;SDS011;21367;51.930;8.112;2023-05-10T17:31:22;45.08;;;23.13;;
35223;SDS011;21367;51.930;8.112;2023-05-10T17:36:28;39.65;;;21.15;;
35223;SDS011;21367;51.930;8.112;2023-05-10T17:41:33;46.38;;;20.83;;
35223;SDS011;21367;51.930;8.112;2023-05-10T17:46:37;42.88;;;20.90;;
35223;SDS011;21367;51.930;8.112;2023-05-10T17:51:44;45.28;;;21.45;;
35223;SDS011;21367;51.930;8.112;2023-05-10T17:56:48;53.20;;;23.65;;
35223;SDS011;21367;51.930;8.112;2023-05-10T18:01:55;41.08;;;21.23;;
35223;SDS011;21367;51.930;8.112;2023-05-10T18:07:02;42.97;;;21.35;;
35223;SDS011;21367;51.930;8.112;2023-05-10T18:12:07;36.40;;;19.52;;
35223;SDS011;21367;51.930;8.112;2023-05-10T18:17:11;43.20;;;20.40;;
35223;SDS011;21367;51.930;8.112;2023-05-10T18:22:17;38.72;;;19.40;;
35223;SDS011;21367;51.930;8.112;2023-05-10T18:27:21;40.65;;;19.92;;
35223;SDS011;21367;51.930;8.112;2023-05-10T18:32:25;36.65;;;18.58;;
35223;SDS011;21367;51.930;8.112;2023-05-10T18:37:31;37.22;;;19.15;;
35223;SDS011;21367;51.930;8.112;2023-05-10T18:42:35;36.85;;;18.52;;
35223;SDS011;21367;51.930;8.112;2023-05-10T18:47:39;37.03;;;18.13;;
35223;SDS011;21367;51.930;8.112;2023-05-10T18:52:46;37.65;;;18.67;;
35223;SDS011;21367;51.930;8.112;2023-05-10T18:57:50;41.58;;;19.63;;
35223;SDS011;21367;51.930;8.112;2023-05-10T19:02:54;42.65;;;19.77;;
35223;SDS011;21367;51.930;8.112;2023-05-10T19:13:20;35.50;;;19.33;;
35223;SDS011;21367;51.930;8.112;2023-05-10T19:23:33;42.42;;;19.92;;
35223;SDS011;21367;51.930;8.112;2023-05-10T19:28:37;36.92;;;19.55;;
35223;SDS011;21367;51.930;8.112;2023-05-10T19:33:41;36.05;;;20.48;;
35223;SDS011;21367;51.930;8.112;2023-05-10T19:38:51;39.20;;;18.98;;
35223;SDS011;21367;51.930;8.112;2023-05-10T19:43:55;31.33;;;18.05;;
35223;SDS011;21367;51.930;8.112;2023-05-10T19:48:59;37.00;;;19.35;;
35223;SDS011;21367;51.930;8.112;2023-05-10T19:54:06;38.17;;;17.77;;
35223;SDS011;21367;51.930;8.112;2023-05-10T20:04:13;29.65;;;16.77;;
35223;SDS011;21367;51.930;8.112;2023-05-10T20:09:19;35.50;;;17.98;;
35223;SDS011;21367;51.930;8.112;2023-05-10T20:14:23;35.63;;;18.13;;
35223;SDS011;21367;51.930;8.112;2023-05-10T20:19:26;37.83;;;19.02;;
35223;SDS011;21367;51.930;8.112;2023-05-10T20:24:33;43.28;;;19.48;;
35223;SDS011;21367;51.930;8.112;2023-05-10T20:29:36;38.17;;;20.30;;
35223;SDS011;21367;51.930;8.112;2023-05-10T20:34:40;43.13;;;22.00;;
35223;SDS011;21367;51.930;8.112;2023-05-10T20:39:47;42.00;;;20.60;;
35223;SDS011;21367;51.930;8.112;2023-05-10T20:44:51;41.78;;;21.27;;
35223;SDS011;21367;51.930;8.112;2023-05-10T20:49:54;42.70;;;22.40;;
35223;SDS011;21367;51.930;8.112;2023-05-10T20:55:00;41.03;;;22.55;;
35223;SDS011;21367;51.930;8.112;2023-05-10T21:00:05;43.03;;;21.67;;
35223;SDS011;21367;51.930;8.112;2023-05-10T21:05:10;39.43;;;21.97;;
35223;SDS011;21367;51.930;8.112;2023-05-10T21:10:16;45.88;;;23.55;;
35223;SDS011;21367;51.930;8.112;2023-05-10T21:15:21;43.53;;;23.55;;
35223;SDS011;21367;51.930;8.112;2023-05-10T21:20:25;41.55;;;22.05;;
35223;SDS011;21367;51.930;8.112;2023-05-10T21:25:31;41.33;;;21.73;;
35223;SDS011;21367;51.930;8.112;2023-05-10T21:30:35;45.13;;;20.15;;
35223;SDS011;21367;51.930;8.112;2023-05-10T21:35:39;38.70;;;20.65;;
35223;SDS011;21367;51.930;8.112;2023-05-10T21:40:46;39.40;;;20.30;;
35223;SDS011;21367;51.930;8.112;2023-05-10T21:45:49;36.67;;;19.73;;
35223;SDS011;21367;51.930;8.112;2023-05-10T21:50:53;45.90;;;20.58;;
35223;SDS011;21367;51.930;8.112;2023-05-10T21:55:59;31.95;;;19.38;;
35223;SDS011;21367;51.930;8.112;2023-05-10T22:06:06;38.03;;;19.50;;
35223;SDS011;21367;51.930;8.112;2023-05-10T22:11:13;35.50;;;18.60;;
35223;SDS011;21367;51.930;8.112;2023-05-10T22:16:17;33.58;;;17.77;;
35223;SDS011;21367;51.930;8.112;2023-05-10T22:21:21;33.65;;;17.38;;
35223;SDS011;21367;51.930;8.112;2023-05-10T22:26:27;32.83;;;16.48;;
35223;SDS011;21367;51.930;8.112;2023-05-10T22:31:31;45.63;;;18.77;;
35223;SDS011;21367;51.930;8.112;2023-05-10T22:36:35;31.88;;;14.00;;
35223;SDS011;21367;51.930;8.112;2023-05-10T22:41:42;26.08;;;10.18;;
35223;SDS011;21367;51.930;8.112;2023-05-10T22:46:46;23.67;;;8.95;;
35223;SDS011;21367;51.930;8.112;2023-05-10T22:51:49;11.63;;;6.22;;
35223;SDS011;21367;51.930;8.112;2023-05-10T22:56:55;12.32;;;5.10;;
35223;SDS011;21367;51.930;8.112;2023-05-10T23:01:59;7.20;;;4.22;;
35223;SDS011;21367;51.930;8.112;2023-05-10T23:07:03;9.20;;;4.60;;
35223;SDS011;21367;51.930;8.112;2023-05-10T23:12:09;6.72;;;3.80;;
35223;SDS011;21367;51.930;8.112;2023-05-10T23:17:13;9.88;;;4.07;;
35223;SDS011;21367;51.930;8.112;2023-05-10T23:22:17;7.25;;;4.13;;
35223;SDS011;21367;51.930;8.112;2023-05-10T23:27:23;6.55;;;3.63;;
35223;SDS011;21367;51.930;8.112;2023-05-10T23:32:30;7.13;;;4.22;;
35223;SDS011;21367;51.930;8.112;2023-05-10T23:37:35;7.47;;;4.35;;
35223;SDS011;21367;51.930;8.112;2023-05-10T23:42:42;8.10;;;4.25;;
35223;SDS011;21367;51.930;8.112;2023-05-10T23:47:47;8.27;;;4.90;;
35223;SDS011;21367;51.930;8.112;2023-05-10T23:52:50;8.70;;;5.28;;
35223;SDS011;21367;51.930;8.112;2023-05-10T23:57:57;9.93;;;5.75;;
